sensor_id;sensor_type;location;lat;lon;timestamp;P1;durP1;ratioP1;P2;durP2;ratioP2
173;SDS011;75;48.784;9.364;2023-03-14T18:03:26;6.97;;;2.80;;
173;SDS011;75;48.784;9.364;2023-03-14T18:06:11;8.20;;;3.37;;
173;SDS011;75;48.784;9.364;2023-03-14T18:08:56;6.10;;;2.90;;
173;SDS011;75;48.784;9.364;2023-03-14T18:11:41;8.30;;;3.20;;
173;SDS011;75;48.784;9.364;2023-03-14T18:14:26;6.07;;;2.97;;
173;SDS011;75;48.784;9.364;2023-03-14T18:17:11;13.50;;;5.20;;
173;SDS011;75;48.784;9.364;2023-03-14T18:19:56;7.60;;;3.60;;
173;SDS011;75;48.784;9.364;2023-03-14T18:22:40;6.37;;;3.23;;
173;SDS011;75;48.784;9.364;2023-03-14T18:25:25;9.07;;;3.70;;
173;SDS011;75;48.784;9.364;2023-03-14T18:28:09;8.60;;;3.87;;
173;SDS011;75;48.784;9.364;2023-03-14T18:31:01;6.80;;;2.97;;
173;SDS011;75;48.784;9.364;2023-03-14T18:33:46;5.80;;;2.40;;
173;SDS011;75;48.784;9.364;2023-03-14T18:36:31;4.87;;;2.90;;
173;SDS011;75;48.784;9.364;2023-03-14T18:39:15;6.03;;;2.57;;
173;SDS011;75;48.784;9.364;2023-03-14T18:42:00;5.50;;;2.27;;
173;SDS011;75;48.784;9.364;2023-03-14T18:44:45;6.77;;;2.20;;
173;SDS011;75;48.784;9.364;2023-03-14T18:47:29;6.43;;;2.20;;
173;SDS011;75;48.784;9.364;2023-03-14T18:50:17;5.33;;;2.30;;
173;SDS011;75;48.784;9.364;2023-03-14T18:53:02;3.23;;;2.30;;
173;SDS011;75;48.784;9.364;2023-03-14T18:55:47;4.47;;;2.80;;
173;SDS011;75;48.784;9.364;2023-03-14T18:58:31;4.60;;;2.43;;
173;SDS011;75;48.784;9.364;2023-03-14T19:01:16;5.37;;;2.50;;
173;SDS011;75;48.784;9.364;2023-03-14T19:04:02;4.23;;;2.30;;
173;SDS011;75;48.784;9.364;2023-03-14T19:06:47;4.70;;;2.60;;
173;SDS011;75;48.784;9.364;2023-03-14T19:09:31;5.67;;;2.70;;
173;SDS011;75;48.784;9.364;2023-03-14T19:12:16;5.90;;;3.10;;
173;SDS011;75;48.784;9.364;2023-03-14T19:15:01;5.93;;;2.43;;
173;SDS011;75;48.784;9.364;2023-03-14T19:17:46;5.27;;;2.63;;
173;SDS011;75;48.784;9.364;2023-03-14T19:20:31;4.60;;;2.50;;
173;SDS011;75;48.784;9.364;2023-03-14T19:23:16;5.70;;;2.90;;
173;SDS011;75;48.784;9.364;2023-03-14T19:26:01;5.93;;;2.70;;
173;SDS011;75;48.784;9.364;2023-03-14T19:28:46;7.17;;;3.10;;
173;SDS011;75;48.784;9.364;2023-03-14T19:31:30;4.37;;;2.63;;
173;SDS011;75;48.784;9.364;2023-03-14T19:34:15;6.30;;;2.93;;
173;SDS011;75;48.784;9.364;2023-03-14T19:37:00;4.73;;;2.70;;
173;SDS011;75;48.784;9.364;2023-03-14T19:39:44;5.20;;;2.80;;
173;SDS011;75;48.784;9.364;2023-03-14T19:42:29;3.93;;;2.20;;
173;SDS011;75;48.784;9.364;2023-03-14T19:45:14;4.93;;;2.60;;
173;SDS011;75;48.784;9.364;2023-03-14T19:47:58;5.13;;;2.30;;
173;SDS011;75;48.784;9.364;2023-03-14T19:50:43;3.63;;;2.30;;
173;SDS011;75;48.784;9.364;2023-03-14T19:53:28;6.97;;;2.40;;
173;SDS011;75;48.784;9.364;2023-03-14T19:56:13;4.60;;;2.23;;
173;SDS011;75;48.784;9.364;2023-03-14T19:58:58;7.13;;;2.73;;
173;SDS011;75;48.784;9.364;2023-03-14T20:01:45;5.10;;;2.70;;
173;SDS011;75;48.784;9.364;2023-03-14T20:04:31;6.50;;;3.23;;
173;SDS011;75;48.784;9.364;2023-03-14T20:07:16;5.73;;;2.90;;
173;SDS011;75;48.784;9.364;2023-03-14T20:10:01;3.97;;;2.60;;
173;SDS011;75;48.784;9.364;2023-03-14T20:12:46;5.23;;;2.67;;
173;SDS011;75;48.784;9.364;2023-03-14T20:15:31;3.90;;;2.60;;
173;SDS011;75;48.784;9.364;2023-03-14T20:18:15;3.80;;;2.50;;
173;SDS011;75;48.784;9.364;2023-03-14T20:21:03;6.33;;;3.70;;
173;SDS011;75;48.784;9.364;2023-03-14T20:23:48;5.50;;;3.00;;
173;SDS011;75;48.784;9.364;2023-03-14T20:26:33;5.40;;;3.03;;
173;SDS011;75;48.784;9.364;2023-03-14T20:29:18;5.20;;;2.73;;
173;SDS011;75;48.784;9.364;2023-03-14T20:32:03;6.07;;;3.40;;
173;SDS011;75;48.784;9.364;2023-03-14T20:34:49;5.03;;;3.07;;
173;SDS011;75;48.784;9.364;2023-03-14T20:37:33;9.90;;;4.80;;
173;SDS011;75;48.784;9.364;2023-03-14T20:40:19;8.40;;;4.40;;
173;SDS011;75;48.784;9.364;2023-03-14T20:43:03;4.80;;;2.50;;
173;SDS011;75;48.784;9.364;2023-03-14T20:45:55;7.07;;;2.70;;
173;SDS011;75;48.784;9.364;2023-03-14T20:48:39;6.40;;;2.90;;
173;SDS011;75;48.784;9.364;2023-03-14T20:51:24;4.70;;;2.70;;
173;SDS011;75;48.784;9.364;2023-03-14T20:54:09;4.40;;;2.50;;
173;SDS011;75;48.784;9.364;2023-03-14T20:56:56;6.63;;;3.07;;
173;SDS011;75;48.784;9.364;2023-03-14T20:59:42;8.57;;;2.97;;
173;SDS011;75;48.784;9.364;2023-03-14T21:02:26;6.33;;;2.87;;
173;SDS011;75;48.784;9.364;2023-03-14T21:05:11;4.90;;;2.60;;
173;SDS011;75;48.784;9.364;2023-03-14T21:07:55;4.90;;;2.93;;
173;SDS011;75;48.784;9.364;2023-03-14T21:10:40;5.13;;;2.70;;
173;SDS011;75;48.784;9.364;2023-03-14T21:13:25;5.73;;;2.77;;
173;SDS011;75;48.784;9.364;2023-03-14T21:16:09;7.80;;;2.90;;
173;SDS011;75;48.784;9.364;2023-03-14T21:18:54;7.07;;;2.60;;
173;SDS011;75;48.784;9.364;2023-03-14T21:21:38;5.03;;;2.77;;
173;SDS011;75;48.784;9.364;2023-03-14T21:24:24;9.60;;;3.33;;
173;SDS011;75;48.784;9.364;2023-03-14T21:27:09;6.33;;;2.97;;
173;SDS011;75;48.784;9.364;2023-03-14T21:29:54;6.53;;;3.00;;
173;SDS011;75;48.784;9.364;2023-03-14T21:32:40;5.23;;;3.10;;
173;SDS011;75;48.784;9.364;2023-03-14T21:35:24;5.53;;;2.73;;
173;SDS011;75;48.784;9.364;2023-03-14T21:38:09;9.03;;;3.50;;
173;SDS011;75;48.784;9.364;2023-03-14T21:40:54;7.10;;;3.07;;
173;SDS011;75;48.784;9.364;2023-03-14T21:43:40;8.70;;;3.50;;
173;SDS011;75;48.784;9.364;2023-03-14T21:46:26;9.40;;;3.60;;
173;SDS011;75;48.784;9.364;2023-03-14T21:49:12;6.97;;;3.10;;
173;SDS011;75;48.784;9.364;2023-03-14T21:51:57;6.60;;;3.20;;
173;SDS011;75;48.784;9.364;2023-03-14T21:54:41;5.37;;;2.93;;
173;SDS011;75;48.784;9.364;2023-03-14T21:57:26;6.40;;;2.90;;
173;SDS011;75;48.784;9.364;2023-03-14T22:00:13;5.70;;;2.93;;
173;SDS011;75;48.784;9.364;2023-03-14T22:02:59;4.33;;;2.70;;
173;SDS011;75;48.784;9.364;2023-03-14T22:05:44;4.73;;;3.00;;
173;SDS011;75;48.784;9.364;2023-03-14T22:08:29;5.70;;;3.30;;
173;SDS011;75;48.784;9.364;2023-03-14T22:11:13;4.80;;;3.03;;
173;SDS011;75;48.784;9.364;2023-03-14T22:13:58;5.80;;;2.83;;
173;SDS011;75;48.784;9.364;2023-03-14T22:16:42;6.07;;;3.20;;
173;SDS011;75;48.784;9.364;2023-03-14T22:19:27;4.90;;;3.20;;
173;SDS011;75;48.784;9.364;2023-03-14T22:22:11;5.60;;;3.30;;
173;SDS011;75;48.784;9.364;2023-03-14T22:24:56;8.53;;;3.50;;
173;SDS011;75;48.784;9.364;2023-03-14T22:27:40;4.73;;;3.30;;
173;SDS011;75;48.784;9.364;2023-03-14T22:30:25;9.83;;;3.50;;
173;SDS011;75;48.784;9.364;2023-03-14T22:33:09;6.27;;;3.37;;
173;SDS011;75;48.784;9.364;2023-03-14T22:35:54;6.10;;;3.37;;
173;SDS011;75;48.784;9.364;2023-03-14T22:38:38;4.50;;;2.80;;
173;SDS011;75;48.784;9.364;2023-03-14T22:41:23;6.57;;;3.47;;
173;SDS011;75;48.784;9.364;2023-03-14T22:44:08;4.37;;;3.30;;
173;SDS011;75;48.784;9.364;2023-03-14T22:46:52;3.80;;;3.07;;
173;SDS011;75;48.784;9.364;2023-03-14T22:49:37;3.50;;;2.80;;
173;SDS011;75;48.784;9.364;2023-03-14T22:52:21;4.17;;;3.10;;
173;SDS011;75;48.784;9.364;2023-03-14T22:55:06;3.93;;;3.13;;
173;SDS011;75;48.784;9.364;2023-03-14T22:57:51;5.73;;;3.30;;
173;SDS011;75;48.784;9.364;2023-03-14T23:00:36;6.20;;;4.07;;
173;SDS011;75;48.784;9.364;2023-03-14T23:03:21;5.23;;;4.10;;
173;SDS011;75;48.784;9.364;2023-03-14T23:06:06;5.50;;;4.53;;
173;SDS011;75;48.784;9.364;2023-03-14T23:08:50;6.00;;;5.10;;
173;SDS011;75;48.784;9.364;2023-03-14T23:11:35;6.73;;;5.10;;
173;SDS011;75;48.784;9.364;2023-03-14T23:14:19;6.30;;;5.03;;
173;SDS011;75;48.784;9.364;2023-03-14T23:17:05;8.97;;;5.23;;
173;SDS011;75;48.784;9.364;2023-03-14T23:19:50;6.00;;;5.23;;
173;SDS011;75;48.784;9.364;2023-03-14T23:22:35;6.60;;;5.43;;
173;SDS011;75;48.784;9.364;2023-03-14T23:25:20;5.97;;;5.10;;
173;SDS011;75;48.784;9.364;2023-03-14T23:28:04;7.07;;;5.47;;
173;SDS011;75;48.784;9.364;2023-03-14T23:30:53;7.70;;;5.43;;
173;SDS011;75;48.784;9.364;2023-03-14T23:33:38;7.33;;;5.57;;
173;SDS011;75;48.784;9.364;2023-03-14T23:36:23;8.43;;;6.47;;
173;SDS011;75;48.784;9.364;2023-03-14T23:39:09;8.47;;;5.67;;
173;SDS011;75;48.784;9.364;2023-03-14T23:41:53;8.90;;;5.63;;
173;SDS011;75;48.784;9.364;2023-03-14T23:44:38;9.60;;;6.37;;
173;SDS011;75;48.784;9.364;2023-03-14T23:47:23;9.93;;;5.77;;
173;SDS011;75;48.784;9.364;2023-03-14T23:50:07;11.50;;;6.33;;
173;SDS011;75;48.784;9.364;2023-03-14T23:52:52;10.40;;;6.70;;
173;SDS011;75;48.784;9.364;2023-03-14T23:55:37;10.70;;;6.47;;
173;SDS011;75;48.784;9.364;2023-03-14T23:58:22;13.63;;;6.70;;
